Time;durP1;ratioP1;P1;durP2;ratioP2;P2;SDS_P1;SDS_P2;PMS_P1;PMS_P2;Temp;Humidity;BMP_temperature;BMP_pressure;BME280_temperature;BME280_humidity;BME280_pressure;Samples;Min_cycle;Max_cycle;Signal;HPM_P1;HPM_P2
2021/10/27 00:01:48;;;;;;;331.00;310.10;;;;;;;;;;5003999;28;20451;-66
2021/10/27 00:04:15;;;;;;;325.13;303.30;;;;;;;;;;5007721;28;20473;-66
2021/10/27 00:06:42;;;;;;;339.37;317.73;;;;;;;;;;5008778;28;20477;-65
2021/10/27 00:09:10;;;;;;;338.77;316.77;;;;;;;;;;5006017;28;20487;-67
2021/10/27 00:11:37;;;;;;;338.40;316.70;;;;;;;;;;5004486;28;20957;-66
2021/10/27 00:14:05;;;;;;;338.27;316.60;;;;;;;;;;5009565;28;20464;-66
2021/10/27 00:16:33;;;;;;;335.70;313.90;;;;;;;;;;5000150;28;20454;-66
2021/10/27 00:19:00;;;;;;;319.43;299.13;;;;;;;;;;5002646;28;20597;-66
2021/10/27 00:21:27;;;;;;;314.37;294.10;;;;;;;;;;5011904;28;20469;-68
2021/10/27 00:23:55;;;;;;;294.83;275.23;;;;;;;;;;5010006;28;20469;-66
2021/10/27 00:26:22;;;;;;;285.83;266.87;;;;;;;;;;5012772;28;20454;-67
2021/10/27 00:28:49;;;;;;;272.80;254.70;;;;;;;;;;5010343;28;20501;-67
2021/10/27 00:31:17;;;;;;;273.30;255.30;;;;;;;;;;5001448;28;20446;-67
2021/10/27 00:33:45;;;;;;;278.53;260.13;;;;;;;;;;5006241;28;20465;-67
2021/10/27 00:36:12;;;;;;;285.50;266.60;;;;;;;;;;5010860;28;20450;-69
2021/10/27 00:38:39;;;;;;;282.40;263.40;;;;;;;;;;4999816;28;21030;-67
2021/10/27 00:41:08;;;;;;;301.00;281.23;;;;;;;;;;5030288;22;20509;-69
2021/10/27 00:43:35;;;;;;;296.60;277.20;;;;;;;;;;5021718;28;20469;-68
2021/10/27 00:46:02;;;;;;;303.33;283.33;;;;;;;;;;5029321;28;20822;-69
2021/10/27 00:48:31;;;;;;;306.27;286.57;;;;;;;;;;5030928;28;20464;-68
2021/10/27 00:50:58;;;;;;;309.23;289.13;;;;;;;;;;5020933;28;20488;-68
2021/10/27 00:53:25;;;;;;;314.00;293.50;;;;;;;;;;5011957;28;20445;-68
2021/10/27 00:55:53;;;;;;;314.83;294.43;;;;;;;;;;5008568;28;20500;-67
2021/10/27 00:58:20;;;;;;;318.30;298.10;;;;;;;;;;5011985;28;20461;-67
2021/10/27 01:00:47;;;;;;;312.50;292.73;;;;;;;;;;5010720;28;20992;-68
2021/10/27 01:03:14;;;;;;;318.63;298.20;;;;;;;;;;5010418;28;20473;-69
2021/10/27 01:05:43;;;;;;;318.03;297.43;;;;;;;;;;5008436;28;20470;-68
2021/10/27 01:08:11;;;;;;;308.67;288.57;;;;;;;;;;5010427;28;20468;-69
2021/10/27 01:10:38;;;;;;;307.80;287.63;;;;;;;;;;5011679;28;20465;-68
2021/10/27 01:13:05;;;;;;;310.23;290.43;;;;;;;;;;5010753;28;20834;-68
2021/10/27 01:15:32;;;;;;;311.37;291.20;;;;;;;;;;5010275;28;20473;-68
2021/10/27 01:17:59;;;;;;;306.30;285.83;;;;;;;;;;5008745;28;21022;-68
2021/10/27 01:20:28;;;;;;;315.60;294.97;;;;;;;;;;5010771;28;20485;-70
2021/10/27 01:22:55;;;;;;;311.80;291.60;;;;;;;;;;5002761;28;20953;-70
2021/10/27 01:25:22;;;;;;;322.10;300.60;;;;;;;;;;5011431;28;20457;-68
2021/10/27 01:27:49;;;;;;;320.73;299.70;;;;;;;;;;5010612;28;20445;-70
2021/10/27 01:30:18;;;;;;;313.07;292.53;;;;;;;;;;5011855;28;20462;-68
2021/10/27 01:32:46;;;;;;;318.97;297.47;;;;;;;;;;5009555;28;21087;-69
2021/10/27 01:35:14;;;;;;;323.13;302.20;;;;;;;;;;5011341;28;20461;-68
2021/10/27 01:37:43;;;;;;;319.97;299.30;;;;;;;;;;5010719;28;20448;-68
2021/10/27 01:40:11;;;;;;;320.27;298.97;;;;;;;;;;5011284;28;20517;-69
2021/10/27 01:42:38;;;;;;;325.87;303.77;;;;;;;;;;5010421;28;20457;-68
2021/10/27 01:45:06;;;;;;;328.47;306.67;;;;;;;;;;5007773;28;20918;-69
2021/10/27 01:47:33;;;;;;;325.10;303.60;;;;;;;;;;5011425;28;20454;-72
2021/10/27 01:50:01;;;;;;;324.50;302.43;;;;;;;;;;5010540;28;20545;-68
2021/10/27 01:52:28;;;;;;;325.47;303.20;;;;;;;;;;5011923;28;20452;-69
2021/10/27 01:54:56;;;;;;;318.60;297.20;;;;;;;;;;5009799;28;20465;-67
2021/10/27 01:57:24;;;;;;;316.40;294.90;;;;;;;;;;5012089;28;20452;-68
2021/10/27 01:59:51;;;;;;;307.60;287.00;;;;;;;;;;5014236;28;20584;-68
2021/10/27 02:02:18;;;;;;;320.73;299.27;;;;;;;;;;5013873;28;20465;-69
2021/10/27 02:04:45;;;;;;;316.57;295.67;;;;;;;;;;5012365;28;20472;-67
2021/10/27 02:07:12;;;;;;;316.87;294.90;;;;;;;;;;5014765;28;21051;-69
2021/10/27 02:09:39;;;;;;;321.10;299.60;;;;;;;;;;5011895;28;20465;-69
2021/10/27 02:12:08;;;;;;;318.50;296.77;;;;;;;;;;5014591;28;20484;-68
2021/10/27 02:14:35;;;;;;;334.40;311.97;;;;;;;;;;5013394;28;20472;-69
2021/10/27 02:17:03;;;;;;;331.00;309.10;;;;;;;;;;5005246;28;20980;-67
2021/10/27 02:19:30;;;;;;;329.03;305.63;;;;;;;;;;5014582;28;20975;-69
2021/10/27 02:21:57;;;;;;;323.07;300.60;;;;;;;;;;5007991;28;20489;-69
2021/10/27 02:24:24;;;;;;;327.13;304.83;;;;;;;;;;5013479;28;20465;-70
2021/10/27 02:26:51;;;;;;;327.43;305.13;;;;;;;;;;5013278;28;20446;-68
2021/10/27 02:29:19;;;;;;;319.27;297.47;;;;;;;;;;5009918;28;20464;-69
2021/10/27 02:31:46;;;;;;;321.13;299.43;;;;;;;;;;5014632;28;20462;-67
2021/10/27 02:34:14;;;;;;;311.97;290.43;;;;;;;;;;5012245;28;20469;-69
2021/10/27 02:36:41;;;;;;;313.93;292.00;;;;;;;;;;5014510;28;20453;-69
2021/10/27 02:39:09;;;;;;;322.03;300.20;;;;;;;;;;5011658;28;20475;-68
2021/10/27 02:41:36;;;;;;;308.37;286.87;;;;;;;;;;4994810;28;20556;-69
2021/10/27 02:44:04;;;;;;;308.67;286.70;;;;;;;;;;5006072;28;20469;-69
2021/10/27 02:46:32;;;;;;;292.53;271.90;;;;;;;;;;5014294;28;20825;-68
2021/10/27 02:48:59;;;;;;;285.47;265.10;;;;;;;;;;5012316;28;20465;-69
2021/10/27 02:51:26;;;;;;;312.50;291.07;;;;;;;;;;5013310;28;20875;-68
2021/10/27 02:53:53;;;;;;;307.40;285.40;;;;;;;;;;5013427;28;20465;-69
2021/10/27 02:56:20;;;;;;;294.33;273.73;;;;;;;;;;5013884;28;20444;-69
2021/10/27 02:58:47;;;;;;;295.87;275.27;;;;;;;;;;5012453;28;20472;-68
2021/10/27 03:01:15;;;;;;;297.60;276.30;;;;;;;;;;5013485;28;20556;-68
2021/10/27 03:03:43;;;;;;;307.00;285.40;;;;;;;;;;5011864;28;20553;-68
2021/10/27 03:06:10;;;;;;;292.67;271.23;;;;;;;;;;5012065;28;20831;-69
2021/10/27 03:08:37;;;;;;;306.17;284.13;;;;;;;;;;5012551;28;20472;-69
2021/10/27 03:11:04;;;;;;;294.80;273.47;;;;;;;;;;4995426;28;21024;-69
2021/10/27 03:13:32;;;;;;;292.37;270.40;;;;;;;;;;5010812;28;20469;-69
2021/10/27 03:15:59;;;;;;;281.00;260.97;;;;;;;;;;5007324;28;20489;-69
2021/10/27 03:18:26;;;;;;;289.00;268.10;;;;;;;;;;5013080;28;20480;-68
2021/10/27 03:20:54;;;;;;;287.07;266.03;;;;;;;;;;5013312;28;20524;-68
2021/10/27 03:23:22;;;;;;;294.13;273.13;;;;;;;;;;5011533;28;20465;-69
2021/10/27 03:25:49;;;;;;;279.70;259.27;;;;;;;;;;5013167;28;20476;-71
2021/10/27 03:28:16;;;;;;;283.80;263.33;;;;;;;;;;5012714;28;20465;-69
2021/10/27 03:30:43;;;;;;;298.20;276.90;;;;;;;;;;5013641;28;20991;-69
2021/10/27 03:33:10;;;;;;;285.73;264.70;;;;;;;;;;5007677;28;20576;-69
2021/10/27 03:35:38;;;;;;;289.63;267.77;;;;;;;;;;5007596;28;20465;-69
2021/10/27 03:38:07;;;;;;;280.73;259.63;;;;;;;;;;5013018;28;20961;-69
2021/10/27 03:40:34;;;;;;;272.80;251.70;;;;;;;;;;5012679;28;20493;-69
2021/10/27 03:43:01;;;;;;;270.83;249.77;;;;;;;;;;5012637;28;20476;-69
2021/10/27 03:45:28;;;;;;;267.73;247.53;;;;;;;;;;5012811;28;20450;-69
2021/10/27 03:47:55;;;;;;;267.67;247.33;;;;;;;;;;5010002;28;20476;-69
2021/10/27 03:50:22;;;;;;;298.80;277.07;;;;;;;;;;4993725;28;20459;-68
2021/10/27 03:52:49;;;;;;;278.90;257.97;;;;;;;;;;5004559;28;20469;-69
2021/10/27 03:55:18;;;;;;;266.30;246.17;;;;;;;;;;5012297;28;20969;-68
2021/10/27 03:57:45;;;;;;;262.97;242.40;;;;;;;;;;5011089;28;21011;-68
2021/10/27 04:00:13;;;;;;;258.87;239.30;;;;;;;;;;5012507;28;20473;-69
2021/10/27 04:02:40;;;;;;;259.90;240.00;;;;;;;;;;5010940;28;20984;-68
2021/10/27 04:05:08;;;;;;;259.53;238.43;;;;;;;;;;5009548;28;20493;-68
2021/10/27 04:07:36;;;;;;;256.83;236.70;;;;;;;;;;5010814;28;20465;-68
2021/10/27 04:10:04;;;;;;;252.60;232.63;;;;;;;;;;5012172;28;20804;-69
2021/10/27 04:12:34;;;;;;;243.03;223.40;;;;;;;;;;5011128;28;20438;-69
2021/10/27 04:15:01;;;;;;;279.63;259.63;;;;;;;;;;5012042;28;20485;-69
2021/10/27 04:17:28;;;;;;;243.90;224.20;;;;;;;;;;5011700;28;20959;-68
2021/10/27 04:19:55;;;;;;;237.67;218.30;;;;;;;;;;5012260;28;20480;-69
2021/10/27 04:22:23;;;;;;;277.80;257.37;;;;;;;;;;5011141;28;20859;-69
2021/10/27 04:24:50;;;;;;;254.37;233.87;;;;;;;;;;5010385;28;20952;-69
2021/10/27 04:27:17;;;;;;;249.87;229.37;;;;;;;;;;5012697;28;20633;-69
2021/10/27 04:29:46;;;;;;;243.93;223.43;;;;;;;;;;5011526;28;20469;-69
2021/10/27 04:32:13;;;;;;;266.97;246.57;;;;;;;;;;5011832;28;20540;-69
2021/10/27 04:34:40;;;;;;;254.13;233.27;;;;;;;;;;5010429;28;20472;-69
2021/10/27 04:37:09;;;;;;;267.43;247.07;;;;;;;;;;5011115;28;20813;-69
2021/10/27 04:39:36;;;;;;;247.67;227.50;;;;;;;;;;5011216;28;20511;-69
2021/10/27 04:42:03;;;;;;;268.67;247.77;;;;;;;;;;5011687;28;20481;-69
2021/10/27 04:44:30;;;;;;;287.87;266.47;;;;;;;;;;5002375;28;20576;-69
2021/10/27 04:47:02;;;;;;;257.20;236.57;;;;;;;;;;5012343;28;20457;-69
2021/10/27 04:49:30;;;;;;;268.53;248.10;;;;;;;;;;5009188;28;20472;-69
2021/10/27 04:51:57;;;;;;;395.13;363.10;;;;;;;;;;5011846;28;20478;-69
2021/10/27 04:54:24;;;;;;;420.67;386.97;;;;;;;;;;5008775;28;20476;-69
2021/10/27 04:56:51;;;;;;;279.30;258.40;;;;;;;;;;5011826;28;20784;-69
2021/10/27 04:59:19;;;;;;;251.90;232.00;;;;;;;;;;5009498;28;20466;-69
2021/10/27 05:01:47;;;;;;;245.70;225.43;;;;;;;;;;5011134;28;20840;-69
2021/10/27 05:04:16;;;;;;;252.37;232.47;;;;;;;;;;5010869;28;20834;-68
2021/10/27 05:06:43;;;;;;;264.93;244.63;;;;;;;;;;5008458;28;20462;-68
2021/10/27 05:09:10;;;;;;;247.07;226.73;;;;;;;;;;5010060;28;20473;-70
2021/10/27 05:11:38;;;;;;;261.90;242.07;;;;;;;;;;5001806;28;20458;-70
2021/10/27 05:14:05;;;;;;;269.30;249.40;;;;;;;;;;5010518;28;20469;-68
2021/10/27 05:16:32;;;;;;;248.13;227.90;;;;;;;;;;5008628;28;20472;-69
2021/10/27 05:18:59;;;;;;;301.17;279.60;;;;;;;;;;5011435;28;20477;-69
2021/10/27 05:21:27;;;;;;;254.83;235.27;;;;;;;;;;5010246;28;20492;-69
2021/10/27 05:23:54;;;;;;;260.63;240.77;;;;;;;;;;5010885;28;20466;-69
2021/10/27 05:26:23;;;;;;;283.77;262.53;;;;;;;;;;5009900;28;20465;-69
2021/10/27 05:28:50;;;;;;;264.80;244.93;;;;;;;;;;5010006;28;21901;-69
2021/10/27 05:31:17;;;;;;;260.30;239.20;;;;;;;;;;5011562;28;20473;-69
2021/10/27 05:33:44;;;;;;;282.30;261.27;;;;;;;;;;5014306;28;20488;-69
2021/10/27 05:36:12;;;;;;;251.20;231.70;;;;;;;;;;5014056;28;20469;-69
2021/10/27 05:38:41;;;;;;;248.57;227.80;;;;;;;;;;5014241;28;20501;-69
2021/10/27 05:41:08;;;;;;;253.37;233.23;;;;;;;;;;5014974;28;20544;-69
2021/10/27 05:43:36;;;;;;;271.43;250.63;;;;;;;;;;5013691;28;21047;-69
2021/10/27 05:46:04;;;;;;;247.63;227.50;;;;;;;;;;5014046;28;20464;-69
2021/10/27 05:48:32;;;;;;;256.77;237.33;;;;;;;;;;5011151;28;20988;-69
2021/10/27 05:51:13;;;;;;;253.30;234.30;;;;;;;;;;5014433;28;20481;-69
2021/10/27 05:56:27;;;;;;;243.50;224.20;;;;;;;;;;5014383;28;20926;-69
2021/10/27 05:58:54;;;;;;;183.40;168.57;;;;;;;;;;5013306;28;20569;-69
2021/10/27 06:01:21;;;;;;;189.57;173.37;;;;;;;;;;5013490;28;20489;-70
2021/10/27 06:03:48;;;;;;;232.87;213.30;;;;;;;;;;5014872;28;20978;-69
2021/10/27 06:06:15;;;;;;;319.33;294.67;;;;;;;;;;5011678;28;20466;-69
2021/10/27 06:08:43;;;;;;;367.63;337.73;;;;;;;;;;5014985;28;20450;-69
2021/10/27 06:11:13;;;;;;;443.27;409.37;;;;;;;;;;5012694;28;21014;-69
2021/10/27 06:13:45;;;;;;;546.30;506.90;;;;;;;;;;5014329;28;21004;-68
2021/10/27 06:16:12;;;;;;;572.77;533.53;;;;;;;;;;5009906;28;20991;-69
2021/10/27 06:18:40;;;;;;;624.63;583.60;;;;;;;;;;5014826;28;20544;-69
2021/10/27 06:21:07;;;;;;;621.03;579.90;;;;;;;;;;5014420;28;20523;-69
2021/10/27 06:23:34;;;;;;;605.93;565.97;;;;;;;;;;5013517;28;20465;-68
2021/10/27 06:26:04;;;;;;;642.70;602.30;;;;;;;;;;5014971;28;20818;-68
2021/10/27 06:28:34;;;;;;;604.30;564.70;;;;;;;;;;5014957;28;20465;-68
2021/10/27 06:31:06;;;;;;;588.70;551.80;;;;;;;;;;4995974;28;20467;-68
2021/10/27 06:33:49;;;;;;;581.30;543.50;;;;;;;;;;5011505;28;20472;-69
2021/10/27 06:36:21;;;;;;;556.57;520.37;;;;;;;;;;5012050;28;20960;-68
2021/10/27 06:46:44;;;;;;;487.93;454.83;;;;;;;;;;5051008;28;20455;-63
2021/10/27 06:49:12;;;;;;;485.27;453.00;;;;;;;;;;5040606;28;20851;-63
2021/10/27 06:51:39;;;;;;;493.90;462.53;;;;;;;;;;5037636;28;20981;-62
2021/10/27 06:54:06;;;;;;;490.37;458.03;;;;;;;;;;5043656;28;20470;-63
2021/10/27 06:56:35;;;;;;;461.73;430.83;;;;;;;;;;5052970;28;20474;-65
2021/10/27 06:59:09;;;;;;;460.73;429.33;;;;;;;;;;5054025;28;20454;-66
2021/10/27 07:02:06;;;;;;;452.33;422.20;;;;;;;;;;5051728;28;20506;-66
2021/10/27 07:15:40;;;;;;;466.53;433.40;;;;;;;;;;5040333;28;20501;-60
2021/10/27 07:18:07;;;;;;;464.60;431.40;;;;;;;;;;5052438;28;20446;-61
2021/10/27 07:20:34;;;;;;;461.97;429.57;;;;;;;;;;5050920;28;20470;-60
2021/10/27 07:23:02;;;;;;;454.23;422.30;;;;;;;;;;5054101;28;20494;-58
2021/10/27 07:25:33;;;;;;;472.67;439.03;;;;;;;;;;5053347;28;20467;-60
2021/10/27 07:28:00;;;;;;;460.40;430.13;;;;;;;;;;5054626;28;20436;-60
2021/10/27 07:30:27;;;;;;;461.30;430.03;;;;;;;;;;5050997;28;20464;-64
2021/10/27 07:32:57;;;;;;;442.67;410.13;;;;;;;;;;5053861;28;20471;-64
2021/10/27 07:35:33;;;;;;;449.00;415.10;;;;;;;;;;5049322;28;20468;-64
2021/10/27 07:40:46;;;;;;;467.13;432.67;;;;;;;;;;5050831;28;20439;-64
2021/10/27 07:43:16;;;;;;;448.93;416.57;;;;;;;;;;5052799;28;20510;-64
2021/10/27 07:45:44;;;;;;;463.83;432.70;;;;;;;;;;5051905;28;20505;-64
2021/10/27 07:48:13;;;;;;;468.63;436.70;;;;;;;;;;5052604;28;20440;-64
2021/10/27 07:50:40;;;;;;;450.33;419.10;;;;;;;;;;5051589;28;20471;-64
2021/10/27 07:53:08;;;;;;;476.03;444.23;;;;;;;;;;5046664;28;20471;-64
2021/10/27 07:55:36;;;;;;;451.80;422.97;;;;;;;;;;5046208;28;20499;-64
2021/10/27 07:58:03;;;;;;;425.70;400.10;;;;;;;;;;5052412;28;20507;-64
2021/10/27 08:00:30;;;;;;;455.87;428.93;;;;;;;;;;5049109;28;20463;-64
2021/10/27 08:03:01;;;;;;;435.50;409.60;;;;;;;;;;5046923;28;20510;-64
2021/10/27 08:05:30;;;;;;;448.20;422.80;;;;;;;;;;5089586;22;20504;-61
2021/10/27 08:07:58;;;;;;;433.50;408.83;;;;;;;;;;5019232;28;20470;-61
2021/10/27 08:10:26;;;;;;;443.77;418.37;;;;;;;;;;5012193;28;20945;-62
2021/10/27 08:12:53;;;;;;;460.17;434.17;;;;;;;;;;5010851;28;20489;-62
2021/10/27 08:15:20;;;;;;;457.00;431.10;;;;;;;;;;5012867;28;20470;-63
2021/10/27 08:17:48;;;;;;;445.40;420.13;;;;;;;;;;5010589;28;20481;-61
2021/10/27 08:20:15;;;;;;;460.63;434.50;;;;;;;;;;5013165;28;20460;-61
2021/10/27 08:22:45;;;;;;;458.57;433.33;;;;;;;;;;5011329;28;20502;-60
2021/10/27 08:25:19;;;;;;;443.87;420.10;;;;;;;;;;5012679;28;20457;-60
2021/10/27 08:27:47;;;;;;;368.73;346.83;;;;;;;;;;5010368;28;20537;-63
2021/10/27 08:30:17;;;;;;;447.23;422.63;;;;;;;;;;5009386;28;20934;-61
2021/10/27 08:32:49;;;;;;;455.23;429.97;;;;;;;;;;5011709;28;20485;-62
2021/10/27 08:35:17;;;;;;;465.53;440.83;;;;;;;;;;5001725;28;20521;-61
2021/10/27 08:37:46;;;;;;;444.70;422.00;;;;;;;;;;5006579;28;20462;-61
2021/10/27 08:40:14;;;;;;;461.23;437.83;;;;;;;;;;5011903;28;20490;-65
2021/10/27 08:42:41;;;;;;;473.17;449.17;;;;;;;;;;5009519;28;20516;-61
2021/10/27 08:45:09;;;;;;;445.70;424.23;;;;;;;;;;5013203;28;20445;-61
2021/10/27 08:47:38;;;;;;;458.63;436.40;;;;;;;;;;5015277;28;20469;-64
2021/10/27 08:50:06;;;;;;;450.63;428.77;;;;;;;;;;5017444;28;20461;-61
2021/10/27 08:52:34;;;;;;;449.83;427.67;;;;;;;;;;5015298;28;20492;-61
2021/10/27 08:55:04;;;;;;;452.30;429.30;;;;;;;;;;5016132;28;20463;-61
2021/10/27 08:57:32;;;;;;;450.30;428.10;;;;;;;;;;5015952;28;20515;-61
2021/10/27 09:00:05;;;;;;;465.30;442.03;;;;;;;;;;5013376;28;20541;-61
2021/10/27 09:02:52;;;;;;;448.27;426.40;;;;;;;;;;5010308;28;20539;-63
2021/10/27 09:05:36;;;;;;;462.37;440.10;;;;;;;;;;5000184;28;20481;-64
2021/10/27 09:08:22;;;;;;;495.10;466.07;;;;;;;;;;5006958;28;20462;-62
2021/10/27 09:36:10;;;;;;;420.50;391.10;;;;;;;;;;5010946;28;20492;-66
2021/10/27 09:39:02;;;;;;;427.10;398.20;;;;;;;;;;5009707;28;20523;-64
2021/10/27 09:42:00;;;;;;;413.13;385.30;;;;;;;;;;5010866;28;20840;-66
2021/10/27 09:44:53;;;;;;;376.20;350.13;;;;;;;;;;5010834;28;20489;-64
2021/10/27 09:47:44;;;;;;;434.63;406.60;;;;;;;;;;5011494;28;20457;-76
2021/10/27 09:56:12;;;;;;;335.37;314.43;;;;;;;;;;5010729;28;20508;-70
2021/10/27 10:04:16;;;;;;;185.83;172.93;;;;;;;;;;5006945;28;20535;-69
2021/10/27 10:06:45;;;;;;;180.70;167.80;;;;;;;;;;5008574;28;20485;-69
2021/10/27 10:09:13;;;;;;;181.00;168.50;;;;;;;;;;5010557;28;20469;-69
2021/10/27 10:11:40;;;;;;;179.87;166.97;;;;;;;;;;5011455;28;20818;-69
2021/10/27 10:14:09;;;;;;;184.30;171.53;;;;;;;;;;5009882;28;20497;-70
2021/10/27 10:16:41;;;;;;;182.20;169.23;;;;;;;;;;5011473;28;20544;-70
2021/10/27 10:19:10;;;;;;;183.60;170.90;;;;;;;;;;5012047;28;20462;-69
2021/10/27 10:21:37;;;;;;;174.67;161.87;;;;;;;;;;5014368;28;20523;-69
2021/10/27 10:24:29;;;;;;;216.57;202.73;;;;;;;;;;5013740;28;20489;-69
2021/10/27 10:26:56;;;;;;;208.97;195.20;;;;;;;;;;5014509;28;20453;-69
2021/10/27 10:29:44;;;;;;;204.03;190.03;;;;;;;;;;5013976;28;20824;-70
2021/10/27 10:32:32;;;;;;;216.73;202.13;;;;;;;;;;5013344;28;20477;-70
2021/10/27 10:35:02;;;;;;;235.53;220.03;;;;;;;;;;5012918;28;20903;-69
2021/10/27 10:37:31;;;;;;;215.60;200.93;;;;;;;;;;5015093;28;20481;-69
2021/10/27 10:40:01;;;;;;;230.90;216.07;;;;;;;;;;5012981;28;20468;-71
2021/10/27 10:42:56;;;;;;;213.13;198.87;;;;;;;;;;5003961;28;20989;-68
2021/10/27 10:45:35;;;;;;;210.13;195.73;;;;;;;;;;5002806;28;20497;-69
2021/10/27 11:00:07;;;;;;;221.40;206.40;;;;;;;;;;4997835;28;20441;-66
2021/10/27 11:24:46;;;;;;;310.93;290.67;;;;;;;;;;5012617;28;20826;-65
2021/10/27 11:38:21;;;;;;;345.63;323.10;;;;;;;;;;5013075;28;20541;-66
2021/10/27 11:40:50;;;;;;;344.27;321.57;;;;;;;;;;5010570;28;20450;-68
2021/10/27 11:43:26;;;;;;;342.40;320.57;;;;;;;;;;5013272;28;20497;-67
2021/10/27 11:45:56;;;;;;;331.73;310.30;;;;;;;;;;4999795;28;20476;-65
2021/10/27 11:48:33;;;;;;;328.37;306.93;;;;;;;;;;5012743;28;20457;-66
2021/10/27 11:51:01;;;;;;;323.83;302.70;;;;;;;;;;5013345;28;20450;-67
2021/10/27 11:53:31;;;;;;;325.07;304.03;;;;;;;;;;5013081;28;20470;-64
2021/10/27 11:55:58;;;;;;;341.37;318.83;;;;;;;;;;5012769;28;20945;-65
2021/10/27 11:58:36;;;;;;;333.67;312.40;;;;;;;;;;5012722;28;20529;-65
2021/10/27 12:01:04;;;;;;;352.70;330.20;;;;;;;;;;5013206;28;20449;-65
2021/10/27 12:03:38;;;;;;;347.63;325.87;;;;;;;;;;5010991;28;21238;-65
2021/10/27 12:06:08;;;;;;;351.37;327.90;;;;;;;;;;5012335;28;20461;-66
2021/10/27 12:09:05;;;;;;;355.47;332.03;;;;;;;;;;5012561;28;20464;-64
2021/10/27 12:11:38;;;;;;;345.90;323.30;;;;;;;;;;5011575;28;20458;-65
2021/10/27 12:14:16;;;;;;;340.20;317.93;;;;;;;;;;5011930;28;20875;-66
2021/10/27 12:17:00;;;;;;;360.53;336.83;;;;;;;;;;5007869;28;20458;-65
2021/10/27 12:19:29;;;;;;;367.93;343.03;;;;;;;;;;4993140;28;20470;-65
2021/10/27 12:22:00;;;;;;;368.07;343.30;;;;;;;;;;5009798;28;20482;-65
2021/10/27 12:24:30;;;;;;;345.10;322.57;;;;;;;;;;5012491;28;20492;-65
2021/10/27 12:27:01;;;;;;;372.50;347.67;;;;;;;;;;5012274;28;20511;-65
2021/10/27 12:29:29;;;;;;;361.70;337.20;;;;;;;;;;4996294;28;20470;-65
2021/10/27 12:32:04;;;;;;;373.97;348.17;;;;;;;;;;4997004;28;20509;-64
2021/10/27 12:34:31;;;;;;;357.93;334.33;;;;;;;;;;5012529;28;20441;-65
2021/10/27 12:36:59;;;;;;;364.23;339.70;;;;;;;;;;5012984;28;20453;-65
2021/10/27 12:39:42;;;;;;;368.07;342.53;;;;;;;;;;5012645;28;20465;-64
2021/10/27 12:42:12;;;;;;;369.17;343.53;;;;;;;;;;5011142;28;20524;-68
2021/10/27 12:44:46;;;;;;;369.07;343.13;;;;;;;;;;5046555;22;20532;-64
2021/10/27 12:47:15;;;;;;;368.90;343.67;;;;;;;;;;5024897;28;20448;-65
2021/10/27 12:49:43;;;;;;;360.07;335.43;;;;;;;;;;5032091;28;20480;-65
2021/10/27 12:52:27;;;;;;;359.43;334.83;;;;;;;;;;5031835;28;20936;-65
2021/10/27 12:55:13;;;;;;;345.93;323.30;;;;;;;;;;5031701;28;20479;-66
2021/10/27 12:57:44;;;;;;;341.67;319.80;;;;;;;;;;5031504;28;20539;-66
2021/10/27 13:00:16;;;;;;;329.90;308.47;;;;;;;;;;5031742;28;20480;-66
2021/10/27 13:02:52;;;;;;;306.40;287.00;;;;;;;;;;5032267;28;20453;-65
2021/10/27 13:05:29;;;;;;;325.30;303.70;;;;;;;;;;5031810;28;20440;-66
2021/10/27 13:08:02;;;;;;;330.43;308.73;;;;;;;;;;5031718;28;20527;-68
2021/10/27 13:10:47;;;;;;;308.40;288.80;;;;;;;;;;5031766;28;20458;-66
2021/10/27 13:13:29;;;;;;;304.10;284.70;;;;;;;;;;5031147;28;20988;-65
2021/10/27 13:16:12;;;;;;;306.70;287.10;;;;;;;;;;5031497;28;20456;-66
2021/10/27 13:18:57;;;;;;;299.10;280.13;;;;;;;;;;5031638;28;20958;-66
2021/10/27 13:21:34;;;;;;;292.73;274.13;;;;;;;;;;5031767;28;20429;-66
2021/10/27 13:29:40;;;;;;;273.57;256.07;;;;;;;;;;5031664;28;20408;-65
2021/10/27 13:32:11;;;;;;;272.30;254.67;;;;;;;;;;5031319;28;20441;-66
2021/10/27 13:34:38;;;;;;;280.57;262.90;;;;;;;;;;5030857;28;20998;-66
2021/10/27 13:37:06;;;;;;;279.20;261.23;;;;;;;;;;5031671;28;20448;-67
2021/10/27 13:39:33;;;;;;;300.27;281.63;;;;;;;;;;5031493;28;20448;-66
2021/10/27 13:42:07;;;;;;;303.50;284.37;;;;;;;;;;5031411;28;20448;-66
2021/10/27 13:44:40;;;;;;;293.47;274.87;;;;;;;;;;5030709;28;20524;-69
2021/10/27 13:47:19;;;;;;;305.17;285.73;;;;;;;;;;5031420;28;20460;-66
2021/10/27 13:57:43;;;;;;;306.73;287.10;;;;;;;;;;5031765;28;20433;-66
2021/10/27 13:58:38;;;;;;;299.97;280.77;;;;;;;;;;5032468;28;20512;-67
2021/10/27 14:06:40;;;;;;;338.10;315.90;;;;;;;;;;5036341;28;20987;-65
2021/10/27 14:09:13;;;;;;;341.27;318.87;;;;;;;;;;5035595;28;20536;-66
2021/10/27 14:11:49;;;;;;;345.97;322.90;;;;;;;;;;5035855;28;20506;-66
2021/10/27 14:14:22;;;;;;;364.83;340.60;;;;;;;;;;5035904;28;20492;-66
2021/10/27 14:17:13;;;;;;;343.77;320.90;;;;;;;;;;5035353;28;20816;-65
2021/10/27 14:50:44;;;;;;;387.37;359.17;;;;;;;;;;5034613;28;20504;-65
2021/10/27 15:21:10;;;;;;;338.13;313.80;;;;;;;;;;5027750;28;20483;-65
2021/10/27 15:23:45;;;;;;;355.00;331.40;;;;;;;;;;5033878;28;20591;-64
2021/10/27 15:29:20;;;;;;;348.77;325.07;;;;;;;;;;4972627;28;20457;-66
2021/10/27 15:32:11;;;;;;;352.93;329.17;;;;;;;;;;5024124;28;20452;-65
2021/10/27 15:34:55;;;;;;;352.40;327.13;;;;;;;;;;5032986;28;20461;-65
2021/10/27 15:40:44;;;;;;;353.97;328.77;;;;;;;;;;4971903;28;20538;-65
2021/10/27 15:43:38;;;;;;;367.67;342.30;;;;;;;;;;4971950;28;20483;-65
2021/10/27 15:51:47;;;;;;;397.63;371.63;;;;;;;;;;5032822;28;20409;-65
2021/10/27 15:54:16;;;;;;;387.67;361.17;;;;;;;;;;5032930;28;21074;-65
2021/10/27 15:56:44;;;;;;;381.17;356.20;;;;;;;;;;5034485;28;20445;-65
2021/10/27 15:59:11;;;;;;;387.17;360.57;;;;;;;;;;5037879;28;20990;-65
2021/10/27 16:01:38;;;;;;;363.57;337.00;;;;;;;;;;5037501;28;20441;-66
2021/10/27 16:04:06;;;;;;;417.40;389.23;;;;;;;;;;5037219;28;20492;-65
2021/10/27 16:06:39;;;;;;;395.53;369.00;;;;;;;;;;5033119;28;20445;-65
2021/10/27 16:09:08;;;;;;;370.27;343.93;;;;;;;;;;5033154;28;20543;-67
2021/10/27 16:11:36;;;;;;;358.93;332.73;;;;;;;;;;5032937;28;20449;-65
2021/10/27 16:14:04;;;;;;;364.43;337.93;;;;;;;;;;5032556;28;20467;-65
2021/10/27 16:16:31;;;;;;;384.03;357.37;;;;;;;;;;5031535;28;20453;-65
2021/10/27 16:18:58;;;;;;;365.33;338.90;;;;;;;;;;5032799;28;20804;-65
2021/10/27 16:21:25;;;;;;;357.67;331.63;;;;;;;;;;5032577;28;20449;-65
2021/10/27 16:23:52;;;;;;;370.43;344.53;;;;;;;;;;5032671;28;20489;-67
2021/10/27 16:26:21;;;;;;;343.10;316.77;;;;;;;;;;5032031;28;20449;-65
2021/10/27 16:28:50;;;;;;;376.63;349.33;;;;;;;;;;5032834;28;20865;-65
2021/10/27 16:31:17;;;;;;;358.57;332.20;;;;;;;;;;5032370;28;20894;-65
2021/10/27 16:33:46;;;;;;;377.73;350.90;;;;;;;;;;5032156;28;20457;-65
2021/10/27 16:36:13;;;;;;;368.00;339.90;;;;;;;;;;5037444;28;20452;-66
2021/10/27 16:38:41;;;;;;;407.60;380.20;;;;;;;;;;5031602;28;20452;-67
2021/10/27 16:41:09;;;;;;;378.60;350.97;;;;;;;;;;5028073;28;20453;-68
2021/10/27 16:43:37;;;;;;;412.50;384.87;;;;;;;;;;5031505;28;20530;-67
2021/10/27 16:46:06;;;;;;;385.33;357.90;;;;;;;;;;5046131;28;20506;-66
2021/10/27 16:48:33;;;;;;;397.77;370.57;;;;;;;;;;5034393;28;20459;-67
2021/10/27 16:51:00;;;;;;;392.33;365.10;;;;;;;;;;5032463;28;20475;-66
2021/10/27 16:53:29;;;;;;;397.03;369.93;;;;;;;;;;5032442;28;21003;-67
2021/10/27 16:55:57;;;;;;;410.27;382.40;;;;;;;;;;5044685;28;20459;-67
2021/10/27 16:58:24;;;;;;;417.10;388.70;;;;;;;;;;5051970;28;20451;-65
2021/10/27 17:00:51;;;;;;;415.87;387.80;;;;;;;;;;5045351;28;20452;-66
2021/10/27 17:03:20;;;;;;;408.43;380.53;;;;;;;;;;5040768;28;20480;-66
2021/10/27 17:05:47;;;;;;;436.03;407.73;;;;;;;;;;5035940;28;20511;-66
2021/10/27 17:08:17;;;;;;;435.03;406.50;;;;;;;;;;5048294;28;20459;-67
2021/10/27 17:10:44;;;;;;;437.30;409.27;;;;;;;;;;5031661;28;20455;-66
2021/10/27 17:13:11;;;;;;;429.93;401.83;;;;;;;;;;5032103;28;20468;-68
2021/10/27 17:15:39;;;;;;;428.57;400.57;;;;;;;;;;5052671;28;20446;-66
2021/10/27 17:18:07;;;;;;;435.07;406.20;;;;;;;;;;5044976;28;20518;-66
2021/10/27 17:20:36;;;;;;;445.60;416.73;;;;;;;;;;5051230;28;20487;-67
2021/10/27 17:23:03;;;;;;;437.77;409.80;;;;;;;;;;5050514;28;20471;-66